sensor_id;sensor_type;location;lat;lon;timestamp;P1;durP1;ratioP1;P2;durP2;ratioP2
22764;SDS011;11549;50.852;3.816;2024-01-25T00:00:33;62.17;;;8.63;;
22764;SDS011;11549;50.852;3.816;2024-01-25T00:03:02;65.32;;;9.80;;
22764;SDS011;11549;50.852;3.816;2024-01-25T00:05:31;67.10;;;9.48;;
22764;SDS011;11549;50.852;3.816;2024-01-25T00:07:59;51.65;;;8.48;;
22764;SDS011;11549;50.852;3.816;2024-01-25T00:10:29;59.40;;;8.63;;
22764;SDS011;11549;50.852;3.816;2024-01-25T00:12:57;64.22;;;9.32;;
22764;SDS011;11549;50.852;3.816;2024-01-25T00:15:26;58.47;;;9.10;;
22764;SDS011;11549;50.852;3.816;2024-01-25T00:17:55;60.65;;;8.35;;
22764;SDS011;11549;50.852;3.816;2024-01-25T00:20:24;56.53;;;8.82;;
22764;SDS011;11549;50.852;3.816;2024-01-25T00:22:53;62.60;;;10.02;;
22764;SDS011;11549;50.852;3.816;2024-01-25T00:25:22;58.88;;;9.60;;
22764;SDS011;11549;50.852;3.816;2024-01-25T00:27:51;67.43;;;10.18;;
22764;SDS011;11549;50.852;3.816;2024-01-25T00:30:20;56.20;;;9.13;;
22764;SDS011;11549;50.852;3.816;2024-01-25T00:32:49;56.25;;;9.85;;
22764;SDS011;11549;50.852;3.816;2024-01-25T00:35:17;56.70;;;8.95;;
22764;SDS011;11549;50.852;3.816;2024-01-25T00:37:49;60.22;;;8.75;;
22764;SDS011;11549;50.852;3.816;2024-01-25T00:40:18;55.63;;;9.13;;
22764;SDS011;11549;50.852;3.816;2024-01-25T00:42:47;56.85;;;8.93;;
22764;SDS011;11549;50.852;3.816;2024-01-25T00:45:22;51.95;;;7.63;;
22764;SDS011;11549;50.852;3.816;2024-01-25T00:47:51;49.65;;;8.48;;
22764;SDS011;11549;50.852;3.816;2024-01-25T00:50:20;53.20;;;8.77;;
22764;SDS011;11549;50.852;3.816;2024-01-25T00:52:51;59.97;;;8.32;;
22764;SDS011;11549;50.852;3.816;2024-01-25T00:55:20;54.50;;;8.35;;
22764;SDS011;11549;50.852;3.816;2024-01-25T00:57:49;62.15;;;9.32;;
22764;SDS011;11549;50.852;3.816;2024-01-25T01:00:19;67.88;;;8.52;;
22764;SDS011;11549;50.852;3.816;2024-01-25T01:02:50;54.58;;;8.25;;
22764;SDS011;11549;50.852;3.816;2024-01-25T01:05:21;51.08;;;8.27;;
22764;SDS011;11549;50.852;3.816;2024-01-25T01:07:50;54.60;;;8.40;;
22764;SDS011;11549;50.852;3.816;2024-01-25T01:10:19;54.88;;;8.43;;
22764;SDS011;11549;50.852;3.816;2024-01-25T01:12:48;57.25;;;9.65;;
22764;SDS011;11549;50.852;3.816;2024-01-25T01:15:19;56.63;;;8.60;;
22764;SDS011;11549;50.852;3.816;2024-01-25T01:17:48;47.05;;;8.30;;
22764;SDS011;11549;50.852;3.816;2024-01-25T01:20:17;64.13;;;8.57;;
22764;SDS011;11549;50.852;3.816;2024-01-25T01:22:46;57.67;;;8.35;;
22764;SDS011;11549;50.852;3.816;2024-01-25T01:25:15;53.45;;;8.27;;
22764;SDS011;11549;50.852;3.816;2024-01-25T01:27:43;57.97;;;9.35;;
22764;SDS011;11549;50.852;3.816;2024-01-25T01:30:12;56.63;;;8.02;;
22764;SDS011;11549;50.852;3.816;2024-01-25T01:32:40;54.67;;;7.68;;
22764;SDS011;11549;50.852;3.816;2024-01-25T01:35:10;53.78;;;8.50;;
22764;SDS011;11549;50.852;3.816;2024-01-25T01:37:39;62.67;;;8.68;;
22764;SDS011;11549;50.852;3.816;2024-01-25T01:40:08;53.50;;;8.85;;
22764;SDS011;11549;50.852;3.816;2024-01-25T01:42:37;65.15;;;9.15;;
22764;SDS011;11549;50.852;3.816;2024-01-25T01:45:06;57.30;;;8.13;;
22764;SDS011;11549;50.852;3.816;2024-01-25T01:47:38;50.30;;;8.18;;
22764;SDS011;11549;50.852;3.816;2024-01-25T01:50:08;53.88;;;9.20;;
22764;SDS011;11549;50.852;3.816;2024-01-25T01:52:38;61.03;;;8.98;;
22764;SDS011;11549;50.852;3.816;2024-01-25T01:55:08;63.00;;;8.40;;
22764;SDS011;11549;50.852;3.816;2024-01-25T01:57:36;58.05;;;8.05;;
22764;SDS011;11549;50.852;3.816;2024-01-25T02:00:06;53.55;;;8.48;;
22764;SDS011;11549;50.852;3.816;2024-01-25T02:02:36;61.63;;;8.82;;
22764;SDS011;11549;50.852;3.816;2024-01-25T02:05:04;71.75;;;9.60;;
22764;SDS011;11549;50.852;3.816;2024-01-25T02:07:33;61.45;;;8.63;;
22764;SDS011;11549;50.852;3.816;2024-01-25T02:10:04;59.95;;;8.70;;
22764;SDS011;11549;50.852;3.816;2024-01-25T02:12:34;55.17;;;9.23;;
22764;SDS011;11549;50.852;3.816;2024-01-25T02:15:03;61.03;;;8.25;;
22764;SDS011;11549;50.852;3.816;2024-01-25T02:17:32;65.50;;;8.65;;
22764;SDS011;11549;50.852;3.816;2024-01-25T02:20:01;60.00;;;8.75;;
22764;SDS011;11549;50.852;3.816;2024-01-25T02:22:32;56.22;;;7.93;;
22764;SDS011;11549;50.852;3.816;2024-01-25T02:25:00;60.90;;;8.32;;
22764;SDS011;11549;50.852;3.816;2024-01-25T02:27:29;57.17;;;8.32;;
22764;SDS011;11549;50.852;3.816;2024-01-25T02:29:57;52.78;;;9.02;;
22764;SDS011;11549;50.852;3.816;2024-01-25T02:32:26;51.58;;;7.82;;
22764;SDS011;11549;50.852;3.816;2024-01-25T02:34:54;71.57;;;10.38;;
22764;SDS011;11549;50.852;3.816;2024-01-25T02:37:23;67.53;;;8.25;;
22764;SDS011;11549;50.852;3.816;2024-01-25T02:39:53;51.88;;;8.20;;
22764;SDS011;11549;50.852;3.816;2024-01-25T02:42:21;56.58;;;8.88;;
22764;SDS011;11549;50.852;3.816;2024-01-25T02:44:50;63.08;;;9.45;;
22764;SDS011;11549;50.852;3.816;2024-01-25T02:47:18;58.67;;;8.68;;
22764;SDS011;11549;50.852;3.816;2024-01-25T02:49:47;61.08;;;8.93;;
22764;SDS011;11549;50.852;3.816;2024-01-25T02:52:16;61.50;;;9.23;;
22764;SDS011;11549;50.852;3.816;2024-01-25T02:54:45;48.30;;;7.80;;
22764;SDS011;11549;50.852;3.816;2024-01-25T02:57:15;56.88;;;8.82;;
22764;SDS011;11549;50.852;3.816;2024-01-25T02:59:44;62.85;;;8.00;;
22764;SDS011;11549;50.852;3.816;2024-01-25T03:02:13;62.40;;;8.65;;
22764;SDS011;11549;50.852;3.816;2024-01-25T03:04:43;52.20;;;7.90;;
22764;SDS011;11549;50.852;3.816;2024-01-25T03:07:12;60.15;;;8.93;;
22764;SDS011;11549;50.852;3.816;2024-01-25T03:09:40;53.95;;;7.85;;
22764;SDS011;11549;50.852;3.816;2024-01-25T03:12:09;54.63;;;8.48;;
22764;SDS011;11549;50.852;3.816;2024-01-25T03:14:39;54.97;;;8.48;;
22764;SDS011;11549;50.852;3.816;2024-01-25T03:17:07;57.28;;;8.30;;
22764;SDS011;11549;50.852;3.816;2024-01-25T03:19:36;56.20;;;8.65;;
22764;SDS011;11549;50.852;3.816;2024-01-25T03:22:05;51.40;;;9.00;;
22764;SDS011;11549;50.852;3.816;2024-01-25T03:24:33;52.03;;;8.25;;
22764;SDS011;11549;50.852;3.816;2024-01-25T03:27:05;62.92;;;9.45;;
22764;SDS011;11549;50.852;3.816;2024-01-25T03:29:42;59.65;;;8.25;;
22764;SDS011;11549;50.852;3.816;2024-01-25T03:32:11;60.20;;;9.15;;
22764;SDS011;11549;50.852;3.816;2024-01-25T03:34:39;47.45;;;7.80;;
22764;SDS011;11549;50.852;3.816;2024-01-25T03:37:08;48.83;;;8.48;;
22764;SDS011;11549;50.852;3.816;2024-01-25T03:39:36;59.88;;;9.00;;
22764;SDS011;11549;50.852;3.816;2024-01-25T03:42:05;57.80;;;8.88;;
22764;SDS011;11549;50.852;3.816;2024-01-25T03:44:33;53.20;;;8.98;;
22764;SDS011;11549;50.852;3.816;2024-01-25T03:47:04;64.45;;;8.45;;
22764;SDS011;11549;50.852;3.816;2024-01-25T03:49:32;56.53;;;8.45;;
22764;SDS011;11549;50.852;3.816;2024-01-25T03:52:00;61.58;;;8.15;;
22764;SDS011;11549;50.852;3.816;2024-01-25T03:54:29;51.80;;;7.82;;
22764;SDS011;11549;50.852;3.816;2024-01-25T03:56:58;57.63;;;8.40;;
22764;SDS011;11549;50.852;3.816;2024-01-25T03:59:26;60.95;;;9.43;;
22764;SDS011;11549;50.852;3.816;2024-01-25T04:01:55;53.35;;;7.88;;
22764;SDS011;11549;50.852;3.816;2024-01-25T04:04:25;53.45;;;8.30;;
22764;SDS011;11549;50.852;3.816;2024-01-25T04:06:54;55.88;;;8.60;;
22764;SDS011;11549;50.852;3.816;2024-01-25T04:09:22;52.55;;;8.25;;
22764;SDS011;11549;50.852;3.816;2024-01-25T04:11:52;50.55;;;8.52;;
22764;SDS011;11549;50.852;3.816;2024-01-25T04:14:22;54.75;;;8.38;;
22764;SDS011;11549;50.852;3.816;2024-01-25T04:16:50;56.50;;;7.80;;
22764;SDS011;11549;50.852;3.816;2024-01-25T04:19:19;46.05;;;7.22;;
22764;SDS011;11549;50.852;3.816;2024-01-25T04:21:48;42.83;;;6.82;;
22764;SDS011;11549;50.852;3.816;2024-01-25T04:24:17;35.95;;;6.13;;
22764;SDS011;11549;50.852;3.816;2024-01-25T04:26:45;45.33;;;7.38;;
22764;SDS011;11549;50.852;3.816;2024-01-25T04:29:14;42.00;;;7.40;;
22764;SDS011;11549;50.852;3.816;2024-01-25T04:31:43;44.33;;;7.22;;
22764;SDS011;11549;50.852;3.816;2024-01-25T04:34:12;47.45;;;7.32;;
22764;SDS011;11549;50.852;3.816;2024-01-25T04:36:41;39.30;;;6.72;;
22764;SDS011;11549;50.852;3.816;2024-01-25T04:39:12;40.13;;;6.68;;
22764;SDS011;11549;50.852;3.816;2024-01-25T04:41:40;49.10;;;7.32;;
22764;SDS011;11549;50.852;3.816;2024-01-25T04:44:09;51.88;;;7.25;;
22764;SDS011;11549;50.852;3.816;2024-01-25T04:46:37;48.47;;;7.43;;
22764;SDS011;11549;50.852;3.816;2024-01-25T04:49:06;44.72;;;6.78;;
22764;SDS011;11549;50.852;3.816;2024-01-25T04:51:34;55.17;;;8.45;;
22764;SDS011;11549;50.852;3.816;2024-01-25T04:54:03;39.65;;;6.10;;
22764;SDS011;11549;50.852;3.816;2024-01-25T04:56:34;40.33;;;6.68;;
22764;SDS011;11549;50.852;3.816;2024-01-25T04:59:02;44.20;;;6.90;;
22764;SDS011;11549;50.852;3.816;2024-01-25T05:01:31;49.55;;;7.63;;
22764;SDS011;11549;50.852;3.816;2024-01-25T05:04:00;51.30;;;7.88;;
22764;SDS011;11549;50.852;3.816;2024-01-25T05:06:28;62.50;;;9.57;;
22764;SDS011;11549;50.852;3.816;2024-01-25T05:08:57;58.85;;;8.57;;
22764;SDS011;11549;50.852;3.816;2024-01-25T05:11:25;68.78;;;8.82;;
22764;SDS011;11549;50.852;3.816;2024-01-25T05:13:55;51.28;;;8.57;;
22764;SDS011;11549;50.852;3.816;2024-01-25T05:16:24;67.60;;;8.32;;
22764;SDS011;11549;50.852;3.816;2024-01-25T05:18:52;58.50;;;9.23;;
22764;SDS011;11549;50.852;3.816;2024-01-25T05:21:21;58.35;;;9.13;;
22764;SDS011;11549;50.852;3.816;2024-01-25T05:23:50;63.80;;;9.80;;
22764;SDS011;11549;50.852;3.816;2024-01-25T05:26:18;53.20;;;8.63;;
22764;SDS011;11549;50.852;3.816;2024-01-25T05:28:46;72.93;;;9.50;;
22764;SDS011;11549;50.852;3.816;2024-01-25T05:31:16;60.67;;;9.85;;
22764;SDS011;11549;50.852;3.816;2024-01-25T05:33:44;62.35;;;10.13;;
22764;SDS011;11549;50.852;3.816;2024-01-25T05:36:13;61.35;;;9.75;;
22764;SDS011;11549;50.852;3.816;2024-01-25T05:38:41;68.43;;;11.57;;
22764;SDS011;11549;50.852;3.816;2024-01-25T05:41:10;57.08;;;10.85;;
22764;SDS011;11549;50.852;3.816;2024-01-25T05:43:38;69.28;;;10.85;;
22764;SDS011;11549;50.852;3.816;2024-01-25T05:46:07;63.20;;;9.80;;
22764;SDS011;11549;50.852;3.816;2024-01-25T05:48:37;46.03;;;9.88;;
22764;SDS011;11549;50.852;3.816;2024-01-25T05:51:06;65.53;;;11.90;;
22764;SDS011;11549;50.852;3.816;2024-01-25T05:53:34;76.88;;;12.75;;
22764;SDS011;11549;50.852;3.816;2024-01-25T05:56:03;54.17;;;10.25;;
22764;SDS011;11549;50.852;3.816;2024-01-25T05:58:32;71.50;;;11.90;;
22764;SDS011;11549;50.852;3.816;2024-01-25T06:01:01;62.10;;;11.35;;
22764;SDS011;11549;50.852;3.816;2024-01-25T06:03:31;54.90;;;9.90;;
22764;SDS011;11549;50.852;3.816;2024-01-25T06:06:01;49.15;;;11.00;;
22764;SDS011;11549;50.852;3.816;2024-01-25T06:08:30;61.55;;;12.57;;
22764;SDS011;11549;50.852;3.816;2024-01-25T06:10:58;81.45;;;12.32;;
22764;SDS011;11549;50.852;3.816;2024-01-25T06:13:27;80.78;;;12.48;;
22764;SDS011;11549;50.852;3.816;2024-01-25T06:15:56;77.40;;;12.63;;
22764;SDS011;11549;50.852;3.816;2024-01-25T06:18:26;61.05;;;10.70;;
22764;SDS011;11549;50.852;3.816;2024-01-25T06:20:55;22.50;;;8.20;;
22764;SDS011;11549;50.852;3.816;2024-01-25T06:23:25;85.53;;;10.70;;
22764;SDS011;11549;50.852;3.816;2024-01-25T06:25:53;96.60;;;10.60;;
22764;SDS011;11549;50.852;3.816;2024-01-25T06:28:22;96.95;;;10.48;;
22764;SDS011;11549;50.852;3.816;2024-01-25T06:30:51;60.95;;;8.82;;
22764;SDS011;11549;50.852;3.816;2024-01-25T06:33:19;100.50;;;9.80;;
22764;SDS011;11549;50.852;3.816;2024-01-25T06:35:48;42.55;;;8.50;;
22764;SDS011;11549;50.852;3.816;2024-01-25T06:38:17;65.25;;;8.65;;
22764;SDS011;11549;50.852;3.816;2024-01-25T06:40:47;37.63;;;8.05;;
22764;SDS011;11549;50.852;3.816;2024-01-25T06:43:16;83.05;;;10.23;;
22764;SDS011;11549;50.852;3.816;2024-01-25T06:45:45;72.43;;;9.52;;
22764;SDS011;11549;50.852;3.816;2024-01-25T06:48:13;111.05;;;11.35;;
22764;SDS011;11549;50.852;3.816;2024-01-25T06:50:42;48.67;;;9.40;;
22764;SDS011;11549;50.852;3.816;2024-01-25T06:53:11;114.22;;;12.25;;
22764;SDS011;11549;50.852;3.816;2024-01-25T06:55:39;66.13;;;11.02;;
22764;SDS011;11549;50.852;3.816;2024-01-25T06:58:09;121.13;;;13.65;;
22764;SDS011;11549;50.852;3.816;2024-01-25T07:00:38;84.28;;;12.60;;
22764;SDS011;11549;50.852;3.816;2024-01-25T07:03:09;179.77;;;15.73;;
22764;SDS011;11549;50.852;3.816;2024-01-25T07:05:38;67.70;;;11.93;;
22764;SDS011;11549;50.852;3.816;2024-01-25T07:08:06;83.03;;;12.60;;
22764;SDS011;11549;50.852;3.816;2024-01-25T07:10:39;85.45;;;12.90;;
22764;SDS011;11549;50.852;3.816;2024-01-25T07:13:09;83.45;;;13.07;;
22764;SDS011;11549;50.852;3.816;2024-01-25T07:15:38;98.60;;;12.95;;
22764;SDS011;11549;50.852;3.816;2024-01-25T07:18:07;141.57;;;14.68;;
22764;SDS011;11549;50.852;3.816;2024-01-25T07:20:36;42.85;;;12.25;;
22764;SDS011;11549;50.852;3.816;2024-01-25T07:23:05;243.18;;;19.50;;
22764;SDS011;11549;50.852;3.816;2024-01-25T07:25:33;85.65;;;14.23;;
22764;SDS011;11549;50.852;3.816;2024-01-25T07:28:01;97.30;;;14.52;;
22764;SDS011;11549;50.852;3.816;2024-01-25T07:30:32;112.65;;;15.40;;
22764;SDS011;11549;50.852;3.816;2024-01-25T07:33:00;121.53;;;15.63;;
22764;SDS011;11549;50.852;3.816;2024-01-25T07:35:29;43.33;;;12.35;;
22764;SDS011;11549;50.852;3.816;2024-01-25T07:37:57;51.78;;;13.55;;
22764;SDS011;11549;50.852;3.816;2024-01-25T07:40:26;147.27;;;15.90;;
22764;SDS011;11549;50.852;3.816;2024-01-25T07:42:54;219.23;;;19.50;;
22764;SDS011;11549;50.852;3.816;2024-01-25T07:45:23;109.70;;;15.80;;
22764;SDS011;11549;50.852;3.816;2024-01-25T07:47:53;116.72;;;15.27;;
22764;SDS011;11549;50.852;3.816;2024-01-25T07:50:34;201.50;;;18.35;;
22764;SDS011;11549;50.852;3.816;2024-01-25T07:53:03;46.90;;;11.93;;
22764;SDS011;11549;50.852;3.816;2024-01-25T07:55:32;35.15;;;11.00;;
22764;SDS011;11549;50.852;3.816;2024-01-25T07:58:00;271.02;;;20.10;;
22764;SDS011;11549;50.852;3.816;2024-01-25T08:00:29;150.07;;;15.35;;
22764;SDS011;11549;50.852;3.816;2024-01-25T08:02:59;258.00;;;20.75;;
22764;SDS011;11549;50.852;3.816;2024-01-25T08:05:27;104.38;;;15.25;;
22764;SDS011;11549;50.852;3.816;2024-01-25T08:08:10;68.22;;;14.10;;
22764;SDS011;11549;50.852;3.816;2024-01-25T08:10:39;139.57;;;16.80;;
22764;SDS011;11549;50.852;3.816;2024-01-25T08:13:07;118.55;;;14.63;;
22764;SDS011;11549;50.852;3.816;2024-01-25T08:15:35;150.60;;;17.20;;
22764;SDS011;11549;50.852;3.816;2024-01-25T08:18:05;275.77;;;21.50;;
22764;SDS011;11549;50.852;3.816;2024-01-25T08:20:36;67.03;;;13.15;;
22764;SDS011;11549;50.852;3.816;2024-01-25T08:23:05;143.40;;;17.25;;
22764;SDS011;11549;50.852;3.816;2024-01-25T08:25:35;102.07;;;16.42;;
22764;SDS011;11549;50.852;3.816;2024-01-25T08:28:04;84.28;;;14.77;;
22764;SDS011;11549;50.852;3.816;2024-01-25T08:30:33;55.45;;;13.43;;
22764;SDS011;11549;50.852;3.816;2024-01-25T08:33:01;117.35;;;15.23;;
22764;SDS011;11549;50.852;3.816;2024-01-25T08:35:31;38.65;;;12.57;;
22764;SDS011;11549;50.852;3.816;2024-01-25T08:38:01;51.58;;;13.25;;
22764;SDS011;11549;50.852;3.816;2024-01-25T08:40:29;169.50;;;18.35;;
22764;SDS011;11549;50.852;3.816;2024-01-25T08:42:58;125.63;;;16.15;;
22764;SDS011;11549;50.852;3.816;2024-01-25T08:45:26;181.68;;;16.67;;
22764;SDS011;11549;50.852;3.816;2024-01-25T08:47:55;87.38;;;13.48;;
22764;SDS011;11549;50.852;3.816;2024-01-25T08:50:23;107.50;;;15.45;;
22764;SDS011;11549;50.852;3.816;2024-01-25T08:52:54;244.85;;;20.80;;
22764;SDS011;11549;50.852;3.816;2024-01-25T08:55:23;172.27;;;18.10;;
22764;SDS011;11549;50.852;3.816;2024-01-25T08:57:51;200.50;;;18.77;;
22764;SDS011;11549;50.852;3.816;2024-01-25T09:00:20;226.77;;;20.85;;
22764;SDS011;11549;50.852;3.816;2024-01-25T09:02:48;99.40;;;14.77;;
22764;SDS011;11549;50.852;3.816;2024-01-25T09:05:17;89.57;;;15.45;;
22764;SDS011;11549;50.852;3.816;2024-01-25T09:07:46;79.03;;;14.65;;
22764;SDS011;11549;50.852;3.816;2024-01-25T09:10:19;182.30;;;17.42;;
22764;SDS011;11549;50.852;3.816;2024-01-25T09:12:48;54.55;;;13.80;;
22764;SDS011;11549;50.852;3.816;2024-01-25T09:15:16;90.35;;;14.82;;
22764;SDS011;11549;50.852;3.816;2024-01-25T09:17:45;89.07;;;14.88;;
22764;SDS011;11549;50.852;3.816;2024-01-25T09:20:14;35.80;;;12.90;;
22764;SDS011;11549;50.852;3.816;2024-01-25T09:22:42;74.78;;;14.73;;
22764;SDS011;11549;50.852;3.816;2024-01-25T09:25:14;91.97;;;16.33;;
22764;SDS011;11549;50.852;3.816;2024-01-25T09:27:44;94.57;;;16.10;;
22764;SDS011;11549;50.852;3.816;2024-01-25T09:30:13;73.80;;;16.27;;
22764;SDS011;11549;50.852;3.816;2024-01-25T09:32:42;89.18;;;16.98;;
22764;SDS011;11549;50.852;3.816;2024-01-25T09:35:12;60.15;;;16.85;;
22764;SDS011;11549;50.852;3.816;2024-01-25T09:37:41;66.60;;;18.40;;
22764;SDS011;11549;50.852;3.816;2024-01-25T09:40:10;76.47;;;17.73;;
22764;SDS011;11549;50.852;3.816;2024-01-25T09:42:39;57.55;;;18.52;;
22764;SDS011;11549;50.852;3.816;2024-01-25T09:45:10;69.25;;;18.48;;
22764;SDS011;11549;50.852;3.816;2024-01-25T09:47:48;66.60;;;19.35;;
22764;SDS011;11549;50.852;3.816;2024-01-25T09:50:20;93.45;;;20.88;;
22764;SDS011;11549;50.852;3.816;2024-01-25T09:52:49;65.00;;;20.73;;
22764;SDS011;11549;50.852;3.816;2024-01-25T09:55:24;70.20;;;20.50;;
22764;SDS011;11549;50.852;3.816;2024-01-25T09:57:54;76.05;;;23.23;;
22764;SDS011;11549;50.852;3.816;2024-01-25T10:00:24;62.28;;;20.85;;
22764;SDS011;11549;50.852;3.816;2024-01-25T10:02:56;73.65;;;22.10;;
22764;SDS011;11549;50.852;3.816;2024-01-25T10:05:25;73.20;;;22.70;;
22764;SDS011;11549;50.852;3.816;2024-01-25T10:07:53;64.70;;;21.42;;
22764;SDS011;11549;50.852;3.816;2024-01-25T10:10:31;67.43;;;21.98;;
22764;SDS011;11549;50.852;3.816;2024-01-25T10:13:00;67.32;;;21.40;;
22764;SDS011;11549;50.852;3.816;2024-01-25T10:15:30;64.88;;;20.67;;
22764;SDS011;11549;50.852;3.816;2024-01-25T10:18:00;69.18;;;21.90;;
22764;SDS011;11549;50.852;3.816;2024-01-25T10:20:50;67.55;;;21.02;;
22764;SDS011;11549;50.852;3.816;2024-01-25T10:23:19;63.22;;;20.15;;
22764;SDS011;11549;50.852;3.816;2024-01-25T10:25:49;62.80;;;19.08;;
22764;SDS011;11549;50.852;3.816;2024-01-25T10:28:18;67.32;;;19.25;;
22764;SDS011;11549;50.852;3.816;2024-01-25T10:30:48;63.40;;;19.02;;
22764;SDS011;11549;50.852;3.816;2024-01-25T10:33:17;70.20;;;18.77;;
22764;SDS011;11549;50.852;3.816;2024-01-25T10:35:46;75.22;;;20.73;;
22764;SDS011;11549;50.852;3.816;2024-01-25T10:38:17;70.65;;;19.77;;
22764;SDS011;11549;50.852;3.816;2024-01-25T10:40:46;66.95;;;21.25;;
22764;SDS011;11549;50.852;3.816;2024-01-25T10:43:15;81.55;;;22.02;;
22764;SDS011;11549;50.852;3.816;2024-01-25T10:45:44;72.70;;;20.98;;
22764;SDS011;11549;50.852;3.816;2024-01-25T10:48:15;72.20;;;20.15;;
22764;SDS011;11549;50.852;3.816;2024-01-25T10:50:44;76.82;;;20.25;;
22764;SDS011;11549;50.852;3.816;2024-01-25T10:53:14;70.05;;;19.00;;
22764;SDS011;11549;50.852;3.816;2024-01-25T10:55:43;79.07;;;19.92;;
22764;SDS011;11549;50.852;3.816;2024-01-25T10:58:13;66.00;;;19.08;;
22764;SDS011;11549;50.852;3.816;2024-01-25T11:00:41;79.97;;;20.08;;
22764;SDS011;11549;50.852;3.816;2024-01-25T11:03:18;74.93;;;20.38;;
22764;SDS011;11549;50.852;3.816;2024-01-25T11:05:47;71.68;;;19.90;;
22764;SDS011;11549;50.852;3.816;2024-01-25T11:08:17;76.22;;;20.10;;
22764;SDS011;11549;50.852;3.816;2024-01-25T11:10:48;75.53;;;20.35;;
22764;SDS011;11549;50.852;3.816;2024-01-25T11:13:23;61.05;;;18.05;;
22764;SDS011;11549;50.852;3.816;2024-01-25T11:15:53;63.35;;;17.90;;
22764;SDS011;11549;50.852;3.816;2024-01-25T11:18:25;67.50;;;18.70;;
22764;SDS011;11549;50.852;3.816;2024-01-25T11:20:54;57.75;;;17.48;;
22764;SDS011;11549;50.852;3.816;2024-01-25T11:23:31;60.85;;;16.48;;
22764;SDS011;11549;50.852;3.816;2024-01-25T11:26:00;58.03;;;16.52;;
22764;SDS011;11549;50.852;3.816;2024-01-25T11:28:28;52.17;;;15.68;;
22764;SDS011;11549;50.852;3.816;2024-01-25T11:30:56;55.08;;;15.35;;
22764;SDS011;11549;50.852;3.816;2024-01-25T11:33:27;42.55;;;16.55;;
22764;SDS011;11549;50.852;3.816;2024-01-25T11:35:55;49.95;;;16.40;;
22764;SDS011;11549;50.852;3.816;2024-01-25T11:38:24;53.30;;;16.60;;
22764;SDS011;11549;50.852;3.816;2024-01-25T11:40:52;45.05;;;15.52;;
22764;SDS011;11549;50.852;3.816;2024-01-25T11:43:25;36.80;;;14.75;;
22764;SDS011;11549;50.852;3.816;2024-01-25T11:45:53;46.17;;;14.63;;
22764;SDS011;11549;50.852;3.816;2024-01-25T11:48:22;41.85;;;13.27;;
22764;SDS011;11549;50.852;3.816;2024-01-25T11:50:52;37.72;;;12.73;;
22764;SDS011;11549;50.852;3.816;2024-01-25T11:53:20;32.88;;;13.25;;
22764;SDS011;11549;50.852;3.816;2024-01-25T11:55:48;37.90;;;13.40;;
22764;SDS011;11549;50.852;3.816;2024-01-25T11:58:17;32.70;;;11.77;;
22764;SDS011;11549;50.852;3.816;2024-01-25T12:00:46;32.55;;;12.43;;
22764;SDS011;11549;50.852;3.816;2024-01-25T12:03:14;29.48;;;12.55;;
22764;SDS011;11549;50.852;3.816;2024-01-25T12:05:44;26.15;;;12.02;;
22764;SDS011;11549;50.852;3.816;2024-01-25T12:08:14;23.92;;;11.70;;
22764;SDS011;11549;50.852;3.816;2024-01-25T12:10:44;21.27;;;12.07;;
22764;SDS011;11549;50.852;3.816;2024-01-25T12:13:12;21.95;;;11.65;;
22764;SDS011;11549;50.852;3.816;2024-01-25T12:15:41;25.20;;;12.75;;
22764;SDS011;11549;50.852;3.816;2024-01-25T12:18:09;23.23;;;12.10;;
22764;SDS011;11549;50.852;3.816;2024-01-25T12:20:38;18.02;;;11.07;;
22764;SDS011;11549;50.852;3.816;2024-01-25T12:23:07;17.83;;;11.18;;
22764;SDS011;11549;50.852;3.816;2024-01-25T12:25:40;15.70;;;10.07;;
22764;SDS011;11549;50.852;3.816;2024-01-25T12:28:09;20.15;;;11.77;;
22764;SDS011;11549;50.852;3.816;2024-01-25T12:30:38;17.17;;;10.88;;
22764;SDS011;11549;50.852;3.816;2024-01-25T12:33:06;18.85;;;10.60;;
22764;SDS011;11549;50.852;3.816;2024-01-25T12:35:35;18.10;;;10.05;;
22764;SDS011;11549;50.852;3.816;2024-01-25T12:38:04;15.50;;;10.00;;
22764;SDS011;11549;50.852;3.816;2024-01-25T12:40:33;15.23;;;10.80;;
22764;SDS011;11549;50.852;3.816;2024-01-25T12:43:03;15.25;;;10.93;;
22764;SDS011;11549;50.852;3.816;2024-01-25T12:45:31;15.25;;;9.52;;
22764;SDS011;11549;50.852;3.816;2024-01-25T12:48:00;13.68;;;9.45;;
22764;SDS011;11549;50.852;3.816;2024-01-25T12:50:29;14.35;;;9.82;;
22764;SDS011;11549;50.852;3.816;2024-01-25T12:53:00;14.27;;;9.80;;
22764;SDS011;11549;50.852;3.816;2024-01-25T12:55:28;15.63;;;10.07;;
22764;SDS011;11549;50.852;3.816;2024-01-25T12:57:59;14.93;;;10.40;;
22764;SDS011;11549;50.852;3.816;2024-01-25T13:00:29;15.80;;;10.50;;
22764;SDS011;11549;50.852;3.816;2024-01-25T13:02:58;15.90;;;10.23;;
22764;SDS011;11549;50.852;3.816;2024-01-25T13:05:28;15.30;;;10.68;;
22764;SDS011;11549;50.852;3.816;2024-01-25T13:08:00;14.82;;;10.43;;
22764;SDS011;11549;50.852;3.816;2024-01-25T13:10:29;17.13;;;11.35;;
22764;SDS011;11549;50.852;3.816;2024-01-25T13:12:58;20.83;;;13.88;;
22764;SDS011;11549;50.852;3.816;2024-01-25T13:15:26;19.08;;;13.30;;
22764;SDS011;11549;50.852;3.816;2024-01-25T13:17:56;18.60;;;11.60;;
22764;SDS011;11549;50.852;3.816;2024-01-25T13:20:25;18.27;;;12.73;;
22764;SDS011;11549;50.852;3.816;2024-01-25T13:22:53;18.55;;;13.27;;
22764;SDS011;11549;50.852;3.816;2024-01-25T13:25:21;19.88;;;12.80;;
22764;SDS011;11549;50.852;3.816;2024-01-25T13:27:50;20.20;;;13.77;;
22764;SDS011;11549;50.852;3.816;2024-01-25T13:30:20;21.00;;;12.77;;
22764;SDS011;11549;50.852;3.816;2024-01-25T13:32:48;20.13;;;12.98;;
22764;SDS011;11549;50.852;3.816;2024-01-25T13:35:19;19.55;;;13.32;;
22764;SDS011;11549;50.852;3.816;2024-01-25T13:37:50;22.15;;;14.40;;
22764;SDS011;11549;50.852;3.816;2024-01-25T13:40:19;22.98;;;14.30;;
22764;SDS011;11549;50.852;3.816;2024-01-25T13:42:47;25.77;;;14.85;;
22764;SDS011;11549;50.852;3.816;2024-01-25T13:45:16;23.65;;;13.93;;
22764;SDS011;11549;50.852;3.816;2024-01-25T13:47:45;25.55;;;14.10;;
22764;SDS011;11549;50.852;3.816;2024-01-25T13:50:14;24.70;;;15.02;;
22764;SDS011;11549;50.852;3.816;2024-01-25T13:52:44;29.15;;;14.90;;
22764;SDS011;11549;50.852;3.816;2024-01-25T13:55:12;31.80;;;16.00;;
22764;SDS011;11549;50.852;3.816;2024-01-25T13:57:41;32.35;;;15.95;;
22764;SDS011;11549;50.852;3.816;2024-01-25T14:00:10;31.23;;;16.83;;
22764;SDS011;11549;50.852;3.816;2024-01-25T14:02:39;30.75;;;17.00;;
22764;SDS011;11549;50.852;3.816;2024-01-25T14:05:12;30.08;;;16.15;;
22764;SDS011;11549;50.852;3.816;2024-01-25T14:07:40;44.15;;;21.15;;
22764;SDS011;11549;50.852;3.816;2024-01-25T14:10:11;37.95;;;19.52;;
22764;SDS011;11549;50.852;3.816;2024-01-25T14:12:39;35.92;;;18.65;;
22764;SDS011;11549;50.852;3.816;2024-01-25T14:15:08;39.17;;;20.23;;
22764;SDS011;11549;50.852;3.816;2024-01-25T14:17:36;40.05;;;19.60;;
22764;SDS011;11549;50.852;3.816;2024-01-25T14:20:06;37.45;;;18.65;;
22764;SDS011;11549;50.852;3.816;2024-01-25T14:22:35;41.30;;;20.20;;
22764;SDS011;11549;50.852;3.816;2024-01-25T14:25:04;39.95;;;19.80;;
22764;SDS011;11549;50.852;3.816;2024-01-25T14:27:35;45.22;;;21.23;;
22764;SDS011;11549;50.852;3.816;2024-01-25T14:30:04;45.75;;;21.40;;
22764;SDS011;11549;50.852;3.816;2024-01-25T14:32:34;49.50;;;22.77;;
22764;SDS011;11549;50.852;3.816;2024-01-25T14:35:03;43.13;;;22.45;;
22764;SDS011;11549;50.852;3.816;2024-01-25T14:37:35;43.53;;;21.90;;